createdAt,value
2023-05-23T04:00:33.706Z,7.47
2023-05-23T04:03:06.066Z,6.88
2023-05-23T04:05:38.468Z,6.60
2023-05-23T04:08:10.841Z,6.05
2023-05-23T04:10:43.123Z,5.80
2023-05-23T04:13:15.376Z,5.97
2023-05-23T04:15:49.050Z,6.00
2023-05-23T04:18:21.335Z,6.57
2023-05-23T04:20:53.623Z,6.47
2023-05-23T04:23:25.768Z,6.00
2023-05-23T04:25:57.855Z,5.75
2023-05-23T04:28:29.951Z,5.65
2023-05-23T04:31:03.508Z,5.63
2023-05-23T04:33:35.656Z,5.50
2023-05-23T04:36:08.458Z,5.72
2023-05-23T04:38:40.543Z,5.82
2023-05-23T04:41:12.633Z,5.47
2023-05-23T04:43:44.801Z,5.20
2023-05-23T04:46:18.266Z,5.55
2023-05-23T04:48:50.356Z,6.32
2023-05-23T04:51:22.441Z,5.50
2023-05-23T04:53:54.556Z,5.70
2023-05-23T04:56:26.777Z,5.90
2023-05-23T04:58:58.898Z,6.20
2023-05-23T05:01:32.382Z,6.78
2023-05-23T05:04:04.531Z,6.30
2023-05-23T05:06:36.660Z,6.07
2023-05-23T05:09:08.734Z,6.35
2023-05-23T05:11:40.891Z,6.65
2023-05-23T05:14:12.992Z,6.03
2023-05-23T05:16:46.441Z,6.68
2023-05-23T05:19:18.701Z,6.60
2023-05-23T05:21:50.852Z,5.75
2023-05-23T05:24:22.931Z,5.70
2023-05-23T05:26:55.149Z,5.90
2023-05-23T05:29:27.256Z,6.30
2023-05-23T05:32:00.713Z,5.82
2023-05-23T05:34:32.805Z,6.15
2023-05-23T05:37:05.088Z,6.45
2023-05-23T05:39:37.175Z,5.70
2023-05-23T05:42:09.270Z,6.55
2023-05-23T05:44:41.414Z,6.18
2023-05-23T05:47:14.821Z,6.57
2023-05-23T05:49:46.904Z,6.13
2023-05-23T05:52:19.009Z,6.47
2023-05-23T05:54:51.072Z,6.93
2023-05-23T05:57:23.142Z,6.68
2023-05-23T05:59:55.261Z,6.32
2023-05-23T06:02:28.748Z,7.15
2023-05-23T06:05:00.959Z,6.53
2023-05-23T06:07:33.140Z,7.43
2023-05-23T06:10:05.597Z,7.13
2023-05-23T06:12:37.697Z,7.35
2023-05-23T06:15:10.059Z,7.68
2023-05-23T06:17:43.586Z,7.97
2023-05-23T06:20:15.653Z,7.55
2023-05-23T06:22:47.872Z,7.43
2023-05-23T06:25:19.934Z,7.05
2023-05-23T06:27:52.092Z,7.72
2023-05-23T06:30:24.181Z,7.43
2023-05-23T06:32:57.694Z,8.25
2023-05-23T06:35:29.777Z,7.75
2023-05-23T06:38:01.856Z,7.60
2023-05-23T06:40:33.944Z,8.02
2023-05-23T06:43:06.003Z,8.20
2023-05-23T06:45:38.126Z,8.40
2023-05-23T06:48:11.623Z,7.47
2023-05-23T06:50:43.839Z,7.97
2023-05-23T06:53:17.390Z,8.00
2023-05-23T06:55:51.086Z,7.57
2023-05-23T06:58:23.177Z,7.70
2023-05-23T07:00:55.284Z,7.70
2023-05-23T07:03:28.742Z,7.80
2023-05-23T07:06:00.848Z,7.00
2023-05-23T07:08:32.952Z,7.35
2023-05-23T07:11:05.063Z,7.20
2023-05-23T07:13:37.187Z,7.43
2023-05-23T07:16:09.263Z,6.75
2023-05-23T07:18:42.712Z,6.78
2023-05-23T07:21:14.990Z,6.85
2023-05-23T07:23:47.095Z,6.57
2023-05-23T07:26:19.149Z,6.53
2023-05-23T07:28:51.218Z,6.55
2023-05-23T07:31:23.407Z,6.45
2023-05-23T07:33:57.078Z,7.47
2023-05-23T07:36:29.337Z,7.38
2023-05-23T07:39:01.410Z,6.97
2023-05-23T07:41:33.486Z,6.97
2023-05-23T07:44:05.543Z,7.03
2023-05-23T07:46:37.740Z,5.57
2023-05-23T07:49:11.243Z,6.85
2023-05-23T07:51:43.313Z,7.13
2023-05-23T07:54:16.665Z,7.10
2023-05-23T07:56:49.020Z,6.80
2023-05-23T07:59:21.120Z,6.28
2023-05-23T08:01:53.235Z,6.97
2023-05-23T08:04:26.726Z,6.57
2023-05-23T08:09:33.826Z,5.97
2023-05-23T08:12:06.327Z,6.40
2023-05-23T08:14:50.584Z,6.45
2023-05-23T08:17:24.496Z,5.82
2023-05-23T08:19:57.954Z,6.03
2023-05-23T08:22:29.995Z,5.70
2023-05-23T08:25:02.073Z,5.97
2023-05-23T08:27:34.226Z,6.63
2023-05-23T08:30:07.165Z,6.20
2023-05-23T08:32:39.306Z,6.25
2023-05-23T08:35:12.759Z,6.10
2023-05-23T08:37:45.072Z,7.28
2023-05-23T08:40:19.029Z,6.18
2023-05-23T08:42:51.219Z,6.55
2023-05-23T08:45:23.378Z,6.53
2023-05-23T08:47:55.498Z,7.70
2023-05-23T08:50:29.013Z,7.43
2023-05-23T08:53:01.074Z,7.65
2023-05-23T08:55:33.177Z,8.13
2023-05-23T08:58:05.232Z,8.00
2023-05-23T09:00:37.316Z,7.97
2023-05-23T09:03:09.675Z,8.70
2023-05-23T09:05:43.860Z,8.80
2023-05-23T09:08:15.915Z,7.82
2023-05-23T09:10:48.750Z,8.00
2023-05-23T09:13:20.817Z,8.35
2023-05-23T09:16:02.128Z,7.70
2023-05-23T09:18:34.461Z,9.02
2023-05-23T09:21:08.109Z,8.23
2023-05-23T09:23:40.475Z,9.07
2023-05-23T09:26:12.732Z,8.20
2023-05-23T09:28:44.802Z,9.48
2023-05-23T09:31:16.925Z,8.63
2023-05-23T09:33:49.464Z,8.20
2023-05-23T09:36:22.910Z,8.05
2023-05-23T09:38:54.978Z,8.48
2023-05-23T09:41:27.042Z,7.68
2023-05-23T09:43:59.193Z,7.80
2023-05-23T09:46:31.310Z,8.57
2023-05-23T09:49:03.393Z,7.45
2023-05-23T09:51:36.853Z,8.63
2023-05-23T09:54:08.929Z,9.77
2023-05-23T09:56:41.058Z,9.20
2023-05-23T09:59:13.142Z,9.57
2023-05-23T10:01:45.660Z,10.32
2023-05-23T10:04:17.820Z,9.90
2023-05-23T10:06:52.397Z,9.90
2023-05-23T10:09:24.440Z,9.20
2023-05-23T10:12:14.340Z,8.98
2023-05-23T10:14:47.058Z,6.82
2023-05-23T10:17:19.678Z,6.43
2023-05-23T10:19:53.130Z,6.82
2023-05-23T10:22:26.537Z,6.10
2023-05-23T10:24:58.612Z,6.25
2023-05-23T10:27:30.679Z,7.00
2023-05-23T10:30:02.767Z,6.72
2023-05-23T10:32:34.859Z,6.22
2023-05-23T10:35:08.854Z,6.05
2023-05-23T10:37:43.682Z,5.63
2023-05-23T10:40:18.312Z,5.50
2023-05-23T10:42:51.730Z,5.65
2023-05-23T10:45:24.108Z,5.53
2023-05-23T10:47:56.218Z,5.45
2023-05-23T10:50:31.626Z,5.22
2023-05-23T10:53:05.223Z,5.88
2023-05-23T10:55:37.457Z,5.68
2023-05-23T10:58:09.716Z,5.25
2023-05-23T11:00:48.082Z,5.43
2023-05-23T11:03:20.309Z,5.47
2023-05-23T11:05:53.432Z,5.72
2023-05-23T11:08:35.461Z,5.80
2023-05-23T11:11:11.346Z,6.30
2023-05-23T11:13:56.199Z,7.18
2023-05-23T11:16:29.083Z,6.97
2023-05-23T11:19:23.223Z,6.47
2023-05-23T11:21:56.185Z,6.95
2023-05-23T11:24:46.657Z,6.90
2023-05-23T11:27:20.114Z,6.03
2023-05-23T11:29:59.010Z,6.45
2023-05-23T11:32:31.201Z,7.85
2023-05-23T11:35:04.098Z,8.20
2023-05-23T11:37:36.255Z,8.10
2023-05-23T11:40:27.396Z,7.90
2023-05-23T11:43:01.137Z,7.25
2023-05-23T11:45:33.299Z,7.85
2023-05-23T11:48:05.910Z,7.15
2023-05-23T11:50:44.392Z,7.95
2023-05-23T11:53:16.632Z,8.15
2023-05-23T11:55:49.211Z,8.50
2023-05-23T11:58:22.995Z,9.77
2023-05-23T12:00:59.070Z,9.18
2023-05-23T12:03:31.616Z,9.65
2023-05-23T12:06:04.041Z,9.52
2023-05-23T12:08:36.087Z,9.02
2023-05-23T12:11:08.178Z,9.02
2023-05-23T12:13:41.905Z,8.20
2023-05-23T12:16:14.088Z,7.50
2023-05-23T12:18:46.195Z,7.70
2023-05-23T12:21:18.299Z,7.45
2023-05-23T12:23:50.771Z,8.05
2023-05-23T12:26:22.846Z,7.78
2023-05-23T12:28:56.271Z,7.18
2023-05-23T12:31:28.410Z,6.57
2023-05-23T12:34:00.517Z,5.97
2023-05-23T12:36:32.626Z,5.78
2023-05-23T12:39:04.953Z,5.82
2023-05-23T12:41:37.020Z,7.70
2023-05-23T12:44:10.558Z,16.75
2023-05-23T12:46:42.623Z,15.48
2023-05-23T12:49:14.720Z,12.48
2023-05-23T12:51:46.759Z,9.25
2023-05-23T12:54:18.826Z,8.35
2023-05-23T12:56:50.886Z,8.85
2023-05-23T12:59:24.317Z,8.57
2023-05-23T13:01:56.409Z,7.85
2023-05-23T13:04:30.953Z,6.90
2023-05-23T13:07:03.960Z,7.18
2023-05-23T13:09:36.029Z,8.60
2023-05-23T13:12:08.315Z,9.20
2023-05-23T13:14:41.959Z,9.95
2023-05-23T13:17:14.096Z,8.93
2023-05-23T13:19:46.347Z,8.13
2023-05-23T13:22:18.469Z,6.63
2023-05-23T13:24:50.558Z,5.93
2023-05-23T13:27:22.655Z,6.35
2023-05-23T13:29:56.098Z,5.45
2023-05-23T13:32:28.329Z,5.10
2023-05-23T13:35:00.421Z,5.13
2023-05-23T13:37:32.524Z,5.57
2023-05-23T13:40:05.001Z,5.22
2023-05-23T13:42:37.129Z,6.18
2023-05-23T13:45:11.751Z,6.75
2023-05-23T13:47:43.877Z,5.75
2023-05-23T13:50:16.038Z,5.78
2023-05-23T13:52:49.538Z,4.97
2023-05-23T13:55:21.852Z,4.70
2023-05-23T13:57:53.924Z,6.07
2023-05-23T14:00:27.349Z,9.15
2023-05-23T14:02:59.475Z,8.57
2023-05-23T14:05:31.619Z,9.30
2023-05-23T14:08:03.788Z,8.98
2023-05-23T14:10:35.867Z,9.75
2023-05-23T14:13:08.081Z,8.60
2023-05-23T14:15:41.646Z,8.63
2023-05-23T14:18:13.922Z,9.82
2023-05-23T14:20:46.075Z,8.52
2023-05-23T14:23:18.161Z,8.30
2023-05-23T14:25:50.300Z,8.50
2023-05-23T14:28:22.375Z,8.40
2023-05-23T14:30:55.800Z,9.68
2023-05-23T14:33:28.014Z,8.38
2023-05-23T14:36:00.158Z,8.07
2023-05-23T14:38:32.241Z,7.45
2023-05-23T14:41:04.336Z,8.48
2023-05-23T14:43:36.432Z,8.15
2023-05-23T14:46:09.895Z,7.93
2023-05-23T14:48:42.002Z,7.35
2023-05-23T14:51:21.459Z,8.07
2023-05-23T14:54:02.746Z,8.63
2023-05-23T14:56:34.829Z,7.32
2023-05-23T14:59:06.895Z,7.97
2023-05-23T15:01:41.042Z,7.32
2023-05-23T15:04:13.606Z,7.15
2023-05-23T15:06:45.722Z,8.65
2023-05-23T15:09:17.798Z,7.82
2023-05-23T15:11:49.901Z,7.63
2023-05-23T15:14:22.028Z,7.55
2023-05-23T15:16:55.290Z,8.68
2023-05-23T15:19:27.026Z,7.53
2023-05-23T15:21:58.770Z,7.15
2023-05-23T15:24:30.488Z,6.43
2023-05-23T15:27:15.739Z,6.38
2023-05-23T15:29:51.652Z,6.18
2023-05-23T15:32:24.779Z,8.15
2023-05-23T15:34:56.623Z,7.78
2023-05-23T15:37:28.353Z,6.78
2023-05-23T15:40:00.128Z,7.18
2023-05-23T15:42:31.894Z,6.50
2023-05-23T15:45:03.903Z,7.00
2023-05-23T15:47:37.015Z,6.32
2023-05-23T15:50:10.339Z,7.22
2023-05-23T15:52:43.076Z,7.07
2023-05-23T15:55:14.782Z,5.70
2023-05-23T15:57:46.501Z,6.40
2023-05-23T16:00:19.078Z,4.82
2023-05-23T16:02:52.207Z,5.72
2023-05-23T16:05:23.994Z,5.22
2023-05-23T16:07:55.742Z,6.35
2023-05-23T16:10:27.490Z,5.65
2023-05-23T16:12:59.208Z,6.75
2023-05-23T16:15:30.951Z,6.47
2023-05-23T16:18:04.325Z,5.63
2023-05-23T16:20:36.096Z,7.28
2023-05-23T16:23:07.852Z,6.05
2023-05-23T16:25:39.726Z,5.07
2023-05-23T16:28:11.605Z,5.72
2023-05-23T16:30:43.335Z,5.85
2023-05-23T16:33:17.939Z,5.80
2023-05-23T16:35:52.339Z,6.30
2023-05-23T16:38:24.542Z,7.85
2023-05-23T16:40:56.279Z,7.30
2023-05-23T16:43:27.999Z,7.70
2023-05-23T16:45:59.826Z,7.65
2023-05-23T16:48:33.027Z,7.55
2023-05-23T16:51:04.938Z,6.30
2023-05-23T16:53:36.714Z,5.72
2023-05-23T16:56:08.447Z,6.53
2023-05-23T16:58:40.191Z,6.15
2023-05-23T17:01:11.930Z,5.47
2023-05-23T17:03:45.171Z,5.75
2023-05-23T17:06:17.028Z,5.80
2023-05-23T17:08:48.782Z,5.30
2023-05-23T17:11:20.490Z,5.40
2023-05-23T17:13:52.202Z,6.22
2023-05-23T17:16:24.025Z,7.35
2023-05-23T17:18:57.227Z,5.68
2023-05-23T17:21:31.347Z,5.80
2023-05-23T17:24:05.616Z,5.00
2023-05-23T17:26:38.734Z,6.07
2023-05-23T17:29:12.655Z,4.68
2023-05-23T17:31:46.736Z,4.85
2023-05-23T17:34:21.435Z,4.47
2023-05-23T17:36:54.633Z,4.47
2023-05-23T17:39:27.918Z,4.30
2023-05-23T17:42:02.681Z,6.43
2023-05-23T17:44:37.439Z,7.25
2023-05-23T17:47:11.939Z,9.50
2023-05-23T17:49:47.585Z,8.95
2023-05-23T17:52:20.797Z,9.13
2023-05-23T17:54:54.608Z,8.55
2023-05-23T17:57:29.048Z,7.75
2023-05-23T18:00:02.275Z,7.90
2023-05-23T18:02:36.918Z,7.30
2023-05-23T18:05:12.661Z,5.72
2023-05-23T18:07:46.627Z,5.43
2023-05-23T18:10:18.407Z,5.68
2023-05-23T18:12:50.148Z,5.22
2023-05-23T18:15:22.027Z,5.10
2023-05-23T18:17:53.887Z,5.43
2023-05-23T18:20:27.112Z,4.63
2023-05-23T18:22:58.889Z,4.75
2023-05-23T18:25:30.625Z,4.47
2023-05-23T18:28:02.413Z,4.65
2023-05-23T18:30:34.136Z,4.15
2023-05-23T18:33:05.940Z,3.90
2023-05-23T18:35:39.126Z,3.95
2023-05-23T18:38:10.897Z,4.40
2023-05-23T18:40:42.885Z,3.75
2023-05-23T18:43:14.823Z,4.32
2023-05-23T18:45:46.561Z,4.20
2023-05-23T18:48:18.356Z,4.10
2023-05-23T18:50:51.513Z,3.60
2023-05-23T18:53:23.431Z,4.15
2023-05-23T18:55:55.543Z,3.95
2023-05-23T18:58:27.264Z,4.45
2023-05-23T19:00:59.336Z,3.90
2023-05-23T19:03:31.637Z,4.57
2023-05-23T19:06:05.635Z,4.10
2023-05-23T19:08:37.357Z,4.65
2023-05-23T19:11:09.082Z,3.78
2023-05-23T19:13:40.800Z,4.63
2023-05-23T19:16:12.599Z,4.05
2023-05-23T19:18:44.392Z,3.97
2023-05-23T19:21:17.568Z,3.67
2023-05-23T19:23:49.307Z,4.68
2023-05-23T19:26:21.057Z,3.65
2023-05-23T19:28:53.142Z,3.55
2023-05-23T19:31:24.910Z,3.67
2023-05-23T19:33:56.709Z,4.05
2023-05-23T19:36:29.780Z,3.50
2023-05-23T19:39:01.485Z,3.67
2023-05-23T19:41:33.210Z,3.90
2023-05-23T19:44:04.934Z,3.72
2023-05-23T19:46:36.867Z,4.00
2023-05-23T19:49:08.706Z,4.00
2023-05-23T19:51:41.783Z,3.95
2023-05-23T19:54:13.557Z,3.47
2023-05-23T19:56:45.316Z,3.13
2023-05-23T19:59:17.421Z,3.53
2023-05-23T20:01:49.591Z,3.75
2023-05-23T20:04:21.737Z,4.03
2023-05-23T20:06:55.133Z,3.83
2023-05-23T20:09:26.892Z,3.40
2023-05-23T20:11:58.620Z,3.33
2023-05-23T20:14:30.669Z,3.38
2023-05-23T20:17:02.378Z,3.53
2023-05-23T20:19:34.225Z,3.50
2023-05-23T20:22:08.280Z,3.10
2023-05-23T20:24:42.074Z,3.80
2023-05-23T20:27:13.790Z,3.87
2023-05-23T20:29:45.470Z,3.63
2023-05-23T20:32:19.137Z,3.60
2023-05-23T20:34:50.876Z,3.53
2023-05-23T20:37:24.262Z,3.33
2023-05-23T20:39:55.980Z,3.73
2023-05-23T20:42:27.683Z,4.18
2023-05-23T20:44:59.381Z,3.70
2023-05-23T20:47:31.156Z,3.22
2023-05-23T20:50:03.752Z,4.00
2023-05-23T20:52:36.840Z,3.60
2023-05-23T20:55:08.672Z,3.70
2023-05-23T20:57:40.360Z,3.37
2023-05-23T21:00:13.099Z,3.30
2023-05-23T21:02:45.016Z,3.47
2023-05-23T21:05:17.151Z,3.70
2023-05-23T21:07:50.571Z,4.07
2023-05-23T21:10:22.656Z,3.13
2023-05-23T21:12:54.372Z,3.23
2023-05-23T21:15:26.124Z,2.90
2023-05-23T21:17:57.887Z,3.53
2023-05-23T21:20:29.673Z,3.23
2023-05-23T21:23:02.727Z,3.33
2023-05-23T21:25:34.437Z,3.07
2023-05-23T21:28:06.154Z,2.77
2023-05-23T21:30:37.942Z,3.10
2023-05-23T21:33:09.901Z,3.20
2023-05-23T21:35:41.843Z,3.00
2023-05-23T21:38:15.558Z,3.63
2023-05-23T21:40:47.266Z,3.10
2023-05-23T21:43:18.997Z,3.27
2023-05-23T21:45:50.717Z,3.63
2023-05-23T21:48:22.402Z,3.30
2023-05-23T21:50:54.150Z,3.67
2023-05-23T21:53:27.240Z,3.20
2023-05-23T21:55:59.039Z,2.87
2023-05-23T21:58:30.713Z,3.37
